sensor_id;sensor_type;location;lat;lon;timestamp;pressure;altitude;pressure_sealevel;temperature;humidity
81025;BME280;70500;50.292;6.666;2023-08-07T00:01:21;96219.53;;;18.72;60.14
81025;BME280;70500;50.292;6.666;2023-08-07T00:03:53;96223.28;;;18.75;60.06
81025;BME280;70500;50.292;6.666;2023-08-07T00:06:23;96216.75;;;18.67;60.15
81025;BME280;70500;50.292;6.666;2023-08-07T00:08:53;96220.56;;;18.75;60.06
81025;BME280;70500;50.292;6.666;2023-08-07T00:11:32;96221.50;;;18.72;59.96
81025;BME280;70500;50.292;6.666;2023-08-07T00:14:02;96224.03;;;18.75;60.10
81025;BME280;70500;50.292;6.666;2023-08-07T00:16:32;96228.47;;;18.73;60.11
81025;BME280;70500;50.292;6.666;2023-08-07T00:19:02;96231.38;;;18.69;60.23
81025;BME280;70500;50.292;6.666;2023-08-07T00:21:32;96222.25;;;18.72;60.62
81025;BME280;70500;50.292;6.666;2023-08-07T00:24:05;96226.22;;;18.71;60.31
81025;BME280;70500;50.292;6.666;2023-08-07T00:26:38;96232.13;;;18.70;60.47
81025;BME280;70500;50.292;6.666;2023-08-07T00:29:07;96223.22;;;18.69;60.13
81025;BME280;70500;50.292;6.666;2023-08-07T00:31:37;96224.50;;;18.74;60.43
81025;BME280;70500;50.292;6.666;2023-08-07T00:34:08;96230.44;;;18.72;60.31
81025;BME280;70500;50.292;6.666;2023-08-07T00:36:38;96225.94;;;18.69;60.55
81025;BME280;70500;50.292;6.666;2023-08-07T00:39:08;96223.47;;;18.71;60.61
81025;BME280;70500;50.292;6.666;2023-08-07T00:41:43;96225.41;;;18.65;60.65
81025;BME280;70500;50.292;6.666;2023-08-07T00:44:12;96228.91;;;18.66;60.78
81025;BME280;70500;50.292;6.666;2023-08-07T00:46:42;96223.97;;;18.70;60.61
81025;BME280;70500;50.292;6.666;2023-08-07T00:49:12;96228.72;;;18.75;60.68
81025;BME280;70500;50.292;6.666;2023-08-07T00:51:41;96225.72;;;18.73;60.67
81025;BME280;70500;50.292;6.666;2023-08-07T00:54:15;96222.25;;;18.72;60.82
81025;BME280;70500;50.292;6.666;2023-08-07T00:56:49;96224.03;;;18.75;60.90
81025;BME280;70500;50.292;6.666;2023-08-07T00:59:19;96228.94;;;18.71;60.97
81025;BME280;70500;50.292;6.666;2023-08-07T01:01:49;96227.72;;;18.72;61.08
81025;BME280;70500;50.292;6.666;2023-08-07T01:04:21;96228.94;;;18.71;60.85
81025;BME280;70500;50.292;6.666;2023-08-07T01:06:53;96232.41;;;18.72;60.84
81025;BME280;70500;50.292;6.666;2023-08-07T01:09:23;96231.66;;;18.71;61.25
81025;BME280;70500;50.292;6.666;2023-08-07T01:12:02;96230.44;;;18.72;60.98
81025;BME280;70500;50.292;6.666;2023-08-07T01:14:43;96230.16;;;18.70;61.09
81025;BME280;70500;50.292;6.666;2023-08-07T01:17:19;96233.16;;;18.72;61.16
81025;BME280;70500;50.292;6.666;2023-08-07T01:19:52;96232.66;;;18.68;60.92
81025;BME280;70500;50.292;6.666;2023-08-07T01:22:25;96228.66;;;18.69;61.13
81025;BME280;70500;50.292;6.666;2023-08-07T01:24:55;96233.63;;;18.71;60.91
81025;BME280;70500;50.292;6.666;2023-08-07T01:27:37;96240.31;;;18.70;60.95
81025;BME280;70500;50.292;6.666;2023-08-07T01:30:17;96240.31;;;18.70;60.67
81025;BME280;70500;50.292;6.666;2023-08-07T01:32:59;96233.88;;;18.67;61.13
81025;BME280;70500;50.292;6.666;2023-08-07T01:35:35;96243.78;;;18.70;61.00
81025;BME280;70500;50.292;6.666;2023-08-07T01:38:08;96239.09;;;18.71;61.04
81025;BME280;70500;50.292;6.666;2023-08-07T01:40:39;96239.81;;;18.66;61.15
81025;BME280;70500;50.292;6.666;2023-08-07T01:43:09;96248.50;;;18.70;61.19
81025;BME280;70500;50.292;6.666;2023-08-07T01:45:39;96252.22;;;18.67;61.43
81025;BME280;70500;50.292;6.666;2023-08-07T01:48:09;96243.28;;;18.66;61.39
81025;BME280;70500;50.292;6.666;2023-08-07T01:50:39;96246.75;;;18.67;61.31
81025;BME280;70500;50.292;6.666;2023-08-07T01:53:10;96246.97;;;18.63;61.37
81025;BME280;70500;50.292;6.666;2023-08-07T01:55:39;96244.97;;;18.64;61.38
81025;BME280;70500;50.292;6.666;2023-08-07T01:58:10;96245.25;;;18.66;61.63
81025;BME280;70500;50.292;6.666;2023-08-07T02:00:40;96243.28;;;18.66;61.20
81025;BME280;70500;50.292;6.666;2023-08-07T02:03:09;96239.06;;;18.65;61.23
81025;BME280;70500;50.292;6.666;2023-08-07T02:05:39;96239.06;;;18.65;61.33
81025;BME280;70500;50.292;6.666;2023-08-07T02:08:09;96237.56;;;18.64;61.35
81025;BME280;70500;50.292;6.666;2023-08-07T02:10:39;96239.25;;;18.62;61.60
81025;BME280;70500;50.292;6.666;2023-08-07T02:13:08;96245.47;;;18.62;61.44
81025;BME280;70500;50.292;6.666;2023-08-07T02:15:37;96238.03;;;18.63;61.52
81025;BME280;70500;50.292;6.666;2023-08-07T02:18:06;96247.97;;;18.66;61.69
81025;BME280;70500;50.292;6.666;2023-08-07T02:20:36;96246.69;;;18.61;61.78
81025;BME280;70500;50.292;6.666;2023-08-07T02:23:05;96254.09;;;18.61;61.97
81025;BME280;70500;50.292;6.666;2023-08-07T02:25:43;96249.13;;;18.59;61.77
81025;BME280;70500;50.292;6.666;2023-08-07T02:28:14;96248.47;;;18.64;62.02
81025;BME280;70500;50.292;6.666;2023-08-07T02:30:45;96251.38;;;18.61;61.85
81025;BME280;70500;50.292;6.666;2023-08-07T02:33:16;96249.97;;;18.65;61.78
81025;BME280;70500;50.292;6.666;2023-08-07T02:35:45;96259.84;;;18.63;62.00
81025;BME280;70500;50.292;6.666;2023-08-07T02:38:15;96264.53;;;18.62;61.70
81025;BME280;70500;50.292;6.666;2023-08-07T02:40:45;96260.59;;;18.63;61.99
81025;BME280;70500;50.292;6.666;2023-08-07T02:43:20;96257.78;;;18.58;62.23
81025;BME280;70500;50.292;6.666;2023-08-07T02:45:50;96262.28;;;18.61;61.90
81025;BME280;70500;50.292;6.666;2023-08-07T02:48:21;96262.50;;;18.57;62.01
81025;BME280;70500;50.292;6.666;2023-08-07T02:50:50;96261.25;;;18.58;62.23
81025;BME280;70500;50.292;6.666;2023-08-07T02:53:21;96258.06;;;18.60;62.14
81025;BME280;70500;50.292;6.666;2023-08-07T02:55:52;96263.03;;;18.61;61.93
81025;BME280;70500;50.292;6.666;2023-08-07T02:58:23;96260.31;;;18.61;62.19
81025;BME280;70500;50.292;6.666;2023-08-07T03:00:52;96264.75;;;18.59;62.23
81025;BME280;70500;50.292;6.666;2023-08-07T03:03:24;96257.78;;;18.58;62.07
81025;BME280;70500;50.292;6.666;2023-08-07T03:05:55;96263.72;;;18.56;62.13
81025;BME280;70500;50.292;6.666;2023-08-07T03:08:25;96257.78;;;18.58;61.99
81025;BME280;70500;50.292;6.666;2023-08-07T03:10:57;96253.09;;;18.58;62.39
81025;BME280;70500;50.292;6.666;2023-08-07T03:13:28;96264.81;;;18.64;61.83
81025;BME280;70500;50.292;6.666;2023-08-07T03:16:00;96260.78;;;18.60;62.20
81025;BME280;70500;50.292;6.666;2023-08-07T03:18:30;96257.03;;;18.57;62.54
81025;BME280;70500;50.292;6.666;2023-08-07T03:20:59;96255.59;;;18.62;62.23
81025;BME280;70500;50.292;6.666;2023-08-07T03:23:29;96254.59;;;18.59;62.53
81025;BME280;70500;50.292;6.666;2023-08-07T03:26:06;96253.63;;;18.62;62.24
81025;BME280;70500;50.292;6.666;2023-08-07T03:28:39;96258.34;;;18.62;62.21
81025;BME280;70500;50.292;6.666;2023-08-07T03:31:09;96248.38;;;18.59;62.27
81025;BME280;70500;50.292;6.666;2023-08-07T03:33:38;96247.91;;;18.60;62.62
81025;BME280;70500;50.292;6.666;2023-08-07T03:36:08;96248.19;;;18.62;62.41
81025;BME280;70500;50.292;6.666;2023-08-07T03:38:38;96250.09;;;18.56;62.62
81025;BME280;70500;50.292;6.666;2023-08-07T03:41:10;96258.25;;;18.56;62.52
81025;BME280;70500;50.292;6.666;2023-08-07T03:43:42;96258.06;;;18.60;62.49
81025;BME280;70500;50.292;6.666;2023-08-07T03:46:13;96263.50;;;18.60;62.72
81025;BME280;70500;50.292;6.666;2023-08-07T03:48:42;96254.59;;;18.59;62.74
81025;BME280;70500;50.292;6.666;2023-08-07T03:51:12;96261.81;;;18.62;62.68
81025;BME280;70500;50.292;6.666;2023-08-07T03:53:47;96258.53;;;18.58;62.54
81025;BME280;70500;50.292;6.666;2023-08-07T03:56:17;96259.75;;;18.57;62.86
81025;BME280;70500;50.292;6.666;2023-08-07T03:58:47;96268.84;;;18.69;62.78
81025;BME280;70500;50.292;6.666;2023-08-07T04:01:18;96268.50;;;18.61;62.93
81025;BME280;70500;50.292;6.666;2023-08-07T04:03:48;96267.00;;;18.60;62.72
81025;BME280;70500;50.292;6.666;2023-08-07T04:06:17;96269.44;;;18.58;62.68
81025;BME280;70500;50.292;6.666;2023-08-07T04:08:46;96267.66;;;18.55;62.81
81025;BME280;70500;50.292;6.666;2023-08-07T04:11:17;96264.00;;;18.58;62.59
81025;BME280;70500;50.292;6.666;2023-08-07T04:13:46;96261.41;;;18.49;62.57
81025;BME280;70500;50.292;6.666;2023-08-07T04:16:16;96262.22;;;18.55;62.44
81025;BME280;70500;50.292;6.666;2023-08-07T04:18:45;96262.41;;;18.51;62.46
81025;BME280;70500;50.292;6.666;2023-08-07T04:21:14;96270.59;;;18.51;62.35
81025;BME280;70500;50.292;6.666;2023-08-07T04:23:43;96262.97;;;18.55;62.09
81025;BME280;70500;50.292;6.666;2023-08-07T04:26:12;96273.13;;;18.55;62.38
81025;BME280;70500;50.292;6.666;2023-08-07T04:28:43;96279.78;;;18.54;62.05
81025;BME280;70500;50.292;6.666;2023-08-07T04:31:13;96277.34;;;18.56;62.03
81025;BME280;70500;50.292;6.666;2023-08-07T04:33:42;96279.78;;;18.54;61.86
81025;BME280;70500;50.292;6.666;2023-08-07T04:36:11;96282.03;;;18.55;61.88
81025;BME280;70500;50.292;6.666;2023-08-07T04:38:40;96290.84;;;18.45;62.44
81025;BME280;70500;50.292;6.666;2023-08-07T04:41:09;96294.66;;;18.53;62.48
81025;BME280;70500;50.292;6.666;2023-08-07T04:43:39;96295.59;;;18.50;63.46
81025;BME280;70500;50.292;6.666;2023-08-07T04:46:11;96293.63;;;18.50;63.36
81025;BME280;70500;50.292;6.666;2023-08-07T04:48:41;96299.34;;;18.52;63.10
81025;BME280;70500;50.292;6.666;2023-08-07T04:51:10;96299.34;;;18.52;63.19
81025;BME280;70500;50.292;6.666;2023-08-07T04:53:39;96307.06;;;18.54;62.92
81025;BME280;70500;50.292;6.666;2023-08-07T04:56:08;96308.28;;;18.53;62.88
81025;BME280;70500;50.292;6.666;2023-08-07T04:58:37;96307.25;;;18.50;62.95
81025;BME280;70500;50.292;6.666;2023-08-07T05:01:06;96298.75;;;18.43;63.05
81025;BME280;70500;50.292;6.666;2023-08-07T05:03:38;96300.31;;;18.49;62.92
81025;BME280;70500;50.292;6.666;2023-08-07T05:06:07;96300.81;;;18.48;62.64
81025;BME280;70500;50.292;6.666;2023-08-07T05:08:37;96301.78;;;18.50;62.58
81025;BME280;70500;50.292;6.666;2023-08-07T05:11:06;96303.06;;;18.49;62.47
81025;BME280;70500;50.292;6.666;2023-08-07T05:13:35;96301.28;;;18.46;62.17
81025;BME280;70500;50.292;6.666;2023-08-07T05:16:04;96291.41;;;18.49;62.16
81025;BME280;70500;50.292;6.666;2023-08-07T05:18:33;96305.28;;;18.51;62.23
81025;BME280;70500;50.292;6.666;2023-08-07T05:21:04;96302.78;;;18.47;62.20
81025;BME280;70500;50.292;6.666;2023-08-07T05:23:36;96303.53;;;18.48;62.05
81025;BME280;70500;50.292;6.666;2023-08-07T05:26:05;96309.94;;;18.45;62.11
81025;BME280;70500;50.292;6.666;2023-08-07T05:28:34;96310.13;;;18.41;62.12
81025;BME280;70500;50.292;6.666;2023-08-07T05:31:03;96310.94;;;18.47;61.98
81025;BME280;70500;50.292;6.666;2023-08-07T05:33:32;96312.94;;;18.47;62.03
81025;BME280;70500;50.292;6.666;2023-08-07T05:36:02;96313.41;;;18.45;61.87
81025;BME280;70500;50.292;6.666;2023-08-07T05:38:32;96318.56;;;18.43;62.02
81025;BME280;70500;50.292;6.666;2023-08-07T05:41:01;96311.91;;;18.44;61.91
81025;BME280;70500;50.292;6.666;2023-08-07T05:43:30;96319.59;;;18.46;62.08
81025;BME280;70500;50.292;6.666;2023-08-07T05:45:59;96315.38;;;18.45;61.87
81025;BME280;70500;50.292;6.666;2023-08-07T05:48:29;96317.53;;;18.41;62.19
81025;BME280;70500;50.292;6.666;2023-08-07T05:50:58;96311.63;;;18.42;62.10
81025;BME280;70500;50.292;6.666;2023-08-07T05:53:27;96322.53;;;18.42;62.18
81025;BME280;70500;50.292;6.666;2023-08-07T05:55:57;96324.03;;;18.43;62.11
81025;BME280;70500;50.292;6.666;2023-08-07T05:58:26;96325.72;;;18.41;62.14
81025;BME280;70500;50.292;6.666;2023-08-07T06:00:56;96328.91;;;18.39;61.86
81025;BME280;70500;50.292;6.666;2023-08-07T06:03:25;96339.53;;;18.37;62.35
81025;BME280;70500;50.292;6.666;2023-08-07T06:05:54;96338.03;;;18.36;62.33
81025;BME280;70500;50.292;6.666;2023-08-07T06:08:23;96339.06;;;18.39;62.22
81025;BME280;70500;50.292;6.666;2023-08-07T06:10:53;96339.81;;;18.39;62.29
81025;BME280;70500;50.292;6.666;2023-08-07T06:13:23;96346.50;;;18.38;62.26
81025;BME280;70500;50.292;6.666;2023-08-07T06:16:03;96345.00;;;18.37;62.32
81025;BME280;70500;50.292;6.666;2023-08-07T06:18:33;96345.41;;;18.30;61.91
81025;BME280;70500;50.292;6.666;2023-08-07T06:21:03;96347.44;;;18.35;62.28
81025;BME280;70500;50.292;6.666;2023-08-07T06:23:34;96349.13;;;18.33;62.28
81025;BME280;70500;50.292;6.666;2023-08-07T06:26:03;96352.88;;;18.35;62.26
81025;BME280;70500;50.292;6.666;2023-08-07T06:28:34;96355.13;;;18.37;62.03
81025;BME280;70500;50.292;6.666;2023-08-07T06:31:06;96355.13;;;18.37;62.21
81025;BME280;70500;50.292;6.666;2023-08-07T06:33:36;96358.81;;;18.34;62.14
81025;BME280;70500;50.292;6.666;2023-08-07T06:36:06;96347.63;;;18.32;62.00
81025;BME280;70500;50.292;6.666;2023-08-07T06:38:36;96353.84;;;18.32;62.29
81025;BME280;70500;50.292;6.666;2023-08-07T06:41:06;96351.84;;;18.33;62.45
81025;BME280;70500;50.292;6.666;2023-08-07T06:43:36;96363.97;;;18.32;62.30
81025;BME280;70500;50.292;6.666;2023-08-07T06:46:05;96361.53;;;18.34;62.07
81025;BME280;70500;50.292;6.666;2023-08-07T06:48:35;96367.44;;;18.32;62.16
81025;BME280;70500;50.292;6.666;2023-08-07T06:51:04;96360.03;;;18.33;62.07
81025;BME280;70500;50.292;6.666;2023-08-07T06:53:33;96369.94;;;18.30;62.16
81025;BME280;70500;50.292;6.666;2023-08-07T06:56:02;96370.66;;;18.31;62.07
81025;BME280;70500;50.292;6.666;2023-08-07T06:58:31;96368.69;;;18.31;62.16
81025;BME280;70500;50.292;6.666;2023-08-07T07:01:01;96372.66;;;18.30;61.98
81025;BME280;70500;50.292;6.666;2023-08-07T07:03:31;96359.97;;;18.27;62.04
81025;BME280;70500;50.292;6.666;2023-08-07T07:06:00;96369.94;;;18.30;61.98
81025;BME280;70500;50.292;6.666;2023-08-07T07:08:29;96379.78;;;18.28;61.83
81025;BME280;70500;50.292;6.666;2023-08-07T07:10:58;96376.84;;;18.31;62.03
81025;BME280;70500;50.292;6.666;2023-08-07T07:13:27;96382.78;;;18.30;62.12
81025;BME280;70500;50.292;6.666;2023-08-07T07:15:57;96377.34;;;18.30;62.07
81025;BME280;70500;50.292;6.666;2023-08-07T07:18:27;96380.53;;;18.28;61.81
81025;BME280;70500;50.292;6.666;2023-08-07T07:20:57;96387.00;;;18.31;61.93
81025;BME280;70500;50.292;6.666;2023-08-07T07:23:28;96384.28;;;18.31;62.06
81025;BME280;70500;50.292;6.666;2023-08-07T07:25:57;96388.72;;;18.28;62.01
81025;BME280;70500;50.292;6.666;2023-08-07T07:28:27;96390.22;;;18.29;62.08
81025;BME280;70500;50.292;6.666;2023-08-07T07:30:56;96392.66;;;18.27;61.92
81025;BME280;70500;50.292;6.666;2023-08-07T07:33:25;96397.91;;;18.31;61.78
81025;BME280;70500;50.292;6.666;2023-08-07T07:35:57;96401.59;;;18.28;61.67
81025;BME280;70500;50.292;6.666;2023-08-07T07:38:26;96407.03;;;18.28;61.84
81025;BME280;70500;50.292;6.666;2023-08-07T07:40:55;96411.75;;;18.27;61.69
81025;BME280;70500;50.292;6.666;2023-08-07T07:43:25;96403.28;;;18.25;61.72
81025;BME280;70500;50.292;6.666;2023-08-07T07:45:54;96408.72;;;18.25;61.93
81025;BME280;70500;50.292;6.666;2023-08-07T07:48:23;96419.16;;;18.27;61.92
81025;BME280;70500;50.292;6.666;2023-08-07T07:50:59;96419.44;;;18.29;61.77
81025;BME280;70500;50.292;6.666;2023-08-07T07:53:28;96415.97;;;18.28;61.66
81025;BME280;70500;50.292;6.666;2023-08-07T07:55:58;96418.97;;;18.30;61.72
81025;BME280;70500;50.292;6.666;2023-08-07T07:58:27;96419.63;;;18.25;61.45
81025;BME280;70500;50.292;6.666;2023-08-07T08:00:56;96424.41;;;18.30;61.68
81025;BME280;70500;50.292;6.666;2023-08-07T08:03:25;96432.31;;;18.28;61.71
81025;BME280;70500;50.292;6.666;2023-08-07T08:05:55;96432.50;;;18.25;61.80
81025;BME280;70500;50.292;6.666;2023-08-07T08:08:27;96447.78;;;18.22;61.89
81025;BME280;70500;50.292;6.666;2023-08-07T08:10:56;96441.72;;;18.27;61.76
81025;BME280;70500;50.292;6.666;2023-08-07T08:13:26;96435.03;;;18.28;61.85
81025;BME280;70500;50.292;6.666;2023-08-07T08:15:56;96448.19;;;18.30;61.69
81025;BME280;70500;50.292;6.666;2023-08-07T08:18:25;96448.84;;;18.25;61.78
81025;BME280;70500;50.292;6.666;2023-08-07T08:20:54;96446.75;;;18.19;61.53
81025;BME280;70500;50.292;6.666;2023-08-07T08:23:23;96448.66;;;18.28;61.65
81025;BME280;70500;50.292;6.666;2023-08-07T08:25:54;96441.72;;;18.27;61.57
81025;BME280;70500;50.292;6.666;2023-08-07T08:28:23;96440.78;;;18.30;61.56
81025;BME280;70500;50.292;6.666;2023-08-07T08:30:52;96434.56;;;18.30;61.34
81025;BME280;70500;50.292;6.666;2023-08-07T08:33:21;96441.50;;;18.31;61.52
81025;BME280;70500;50.292;6.666;2023-08-07T08:35:50;96445.25;;;18.33;61.38
81025;BME280;70500;50.292;6.666;2023-08-07T08:38:20;96458.59;;;18.31;61.26
81025;BME280;70500;50.292;6.666;2023-08-07T08:40:52;96455.88;;;18.31;61.67
81025;BME280;70500;50.292;6.666;2023-08-07T08:43:25;96453.13;;;18.31;61.49
81025;BME280;70500;50.292;6.666;2023-08-07T08:45:56;96450.41;;;18.31;61.15
81025;BME280;70500;50.292;6.666;2023-08-07T08:48:26;96462.63;;;18.36;61.25
81025;BME280;70500;50.292;6.666;2023-08-07T08:50:58;96451.72;;;18.36;61.16
81025;BME280;70500;50.292;6.666;2023-08-07T08:53:28;96458.22;;;18.38;60.79
81025;BME280;70500;50.292;6.666;2023-08-07T08:55:58;96461.88;;;18.35;61.09
81025;BME280;70500;50.292;6.666;2023-08-07T08:58:29;96465.06;;;18.34;61.09
81025;BME280;70500;50.292;6.666;2023-08-07T09:01:00;96463.66;;;18.38;60.89
81025;BME280;70500;50.292;6.666;2023-08-07T09:03:30;96473.06;;;18.37;61.19
81025;BME280;70500;50.292;6.666;2023-08-07T09:05:59;96469.59;;;18.37;61.01
81025;BME280;70500;50.292;6.666;2023-08-07T09:08:30;96489.59;;;18.34;61.05
81025;BME280;70500;50.292;6.666;2023-08-07T09:11:00;96474.75;;;18.35;61.19
81025;BME280;70500;50.292;6.666;2023-08-07T09:13:33;96487.16;;;18.36;61.06
81025;BME280;70500;50.292;6.666;2023-08-07T09:16:07;96482.66;;;18.33;61.11
81025;BME280;70500;50.292;6.666;2023-08-07T09:18:38;96472.31;;;18.37;61.12
81025;BME280;70500;50.292;6.666;2023-08-07T09:21:08;96471.75;;;18.33;61.19
81025;BME280;70500;50.292;6.666;2023-08-07T09:23:37;96476.72;;;18.34;61.05
81025;BME280;70500;50.292;6.666;2023-08-07T09:26:06;96473.53;;;18.36;60.94
81025;BME280;70500;50.292;6.666;2023-08-07T09:28:38;96476.34;;;18.41;60.90
81025;BME280;70500;50.292;6.666;2023-08-07T09:31:07;96482.28;;;18.40;60.77
81025;BME280;70500;50.292;6.666;2023-08-07T09:33:38;96498.16;;;18.41;60.74
81025;BME280;70500;50.292;6.666;2023-08-07T09:36:08;96495.44;;;18.41;60.74
81025;BME280;70500;50.292;6.666;2023-08-07T09:38:37;96486.78;;;18.43;60.50
81025;BME280;70500;50.292;6.666;2023-08-07T09:41:06;96494.41;;;18.39;60.86
81025;BME280;70500;50.292;6.666;2023-08-07T09:43:37;96497.22;;;18.44;60.40
81025;BME280;70500;50.292;6.666;2023-08-07T09:46:07;96486.03;;;18.42;60.68
81025;BME280;70500;50.292;6.666;2023-08-07T09:48:40;96492.25;;;18.43;60.45
81025;BME280;70500;50.292;6.666;2023-08-07T09:51:09;96484.06;;;18.43;60.68
81025;BME280;70500;50.292;6.666;2023-08-07T09:53:39;96496.94;;;18.42;60.41
81025;BME280;70500;50.292;6.666;2023-08-07T09:56:08;96495.25;;;18.45;60.36
81025;BME280;70500;50.292;6.666;2023-08-07T09:58:46;96502.84;;;18.41;60.59
81025;BME280;70500;50.292;6.666;2023-08-07T10:01:16;96500.41;;;18.43;60.34
81025;BME280;70500;50.292;6.666;2023-08-07T10:03:46;96501.34;;;18.40;60.56
81025;BME280;70500;50.292;6.666;2023-08-07T10:06:17;96494.50;;;18.44;60.31
81025;BME280;70500;50.292;6.666;2023-08-07T10:08:47;96491.66;;;18.39;60.39
81025;BME280;70500;50.292;6.666;2023-08-07T10:11:17;96507.38;;;18.44;60.20
81025;BME280;70500;50.292;6.666;2023-08-07T10:13:48;96521.00;;;18.44;60.02
81025;BME280;70500;50.292;6.666;2023-08-07T10:16:17;96518.84;;;18.48;59.84
81025;BME280;70500;50.292;6.666;2023-08-07T10:18:46;96521.75;;;18.44;59.77
81025;BME280;70500;50.292;6.666;2023-08-07T10:21:15;96519.22;;;18.41;60.02
81025;BME280;70500;50.292;6.666;2023-08-07T10:23:48;96530.09;;;18.41;60.14
81025;BME280;70500;50.292;6.666;2023-08-07T10:26:22;96529.63;;;18.42;59.95
81025;BME280;70500;50.292;6.666;2023-08-07T10:28:54;96521.28;;;18.46;59.71
81025;BME280;70500;50.292;6.666;2023-08-07T10:31:25;96530.50;;;18.48;59.63
81025;BME280;70500;50.292;6.666;2023-08-07T10:33:55;96544.13;;;18.48;59.58
81025;BME280;70500;50.292;6.666;2023-08-07T10:36:32;96552.09;;;18.52;59.33
81025;BME280;70500;50.292;6.666;2023-08-07T10:39:10;96558.75;;;18.51;59.42
81025;BME280;70500;50.292;6.666;2023-08-07T10:41:42;96546.34;;;18.50;59.52
81025;BME280;70500;50.292;6.666;2023-08-07T10:44:21;96556.53;;;18.49;59.31
81025;BME280;70500;50.292;6.666;2023-08-07T10:46:52;96554.53;;;18.50;59.39
81025;BME280;70500;50.292;6.666;2023-08-07T10:49:33;96544.38;;;18.50;59.11
81025;BME280;70500;50.292;6.666;2023-08-07T10:52:07;96547.03;;;18.45;59.32
81025;BME280;70500;50.292;6.666;2023-08-07T10:54:38;96552.28;;;18.48;59.12
81025;BME280;70500;50.292;6.666;2023-08-07T10:57:11;96556.78;;;18.51;59.00
81025;BME280;70500;50.292;6.666;2023-08-07T10:59:49;96558.50;;;18.49;59.01
81025;BME280;70500;50.292;6.666;2023-08-07T11:02:24;96553.53;;;18.47;59.18
81025;BME280;70500;50.292;6.666;2023-08-07T11:04:54;96558.50;;;18.49;59.04
81025;BME280;70500;50.292;6.666;2023-08-07T11:07:25;96572.38;;;18.51;58.87
81025;BME280;70500;50.292;6.666;2023-08-07T11:09:55;96566.38;;;18.47;58.80
81025;BME280;70500;50.292;6.666;2023-08-07T11:12:25;96559.97;;;18.50;58.47
81025;BME280;70500;50.292;6.666;2023-08-07T11:14:56;96563.75;;;18.52;58.63
81025;BME280;70500;50.292;6.666;2023-08-07T11:17:26;96571.38;;;18.48;58.65
81025;BME280;70500;50.292;6.666;2023-08-07T11:19:56;96562.69;;;18.50;58.77
81025;BME280;70500;50.292;6.666;2023-08-07T11:22:25;96566.69;;;18.49;58.65
81025;BME280;70500;50.292;6.666;2023-08-07T11:24:54;96562.22;;;18.51;58.59
81025;BME280;70500;50.292;6.666;2023-08-07T11:27:24;96556.53;;;18.49;58.61
81025;BME280;70500;50.292;6.666;2023-08-07T11:29:53;96557.00;;;18.48;58.65
81025;BME280;70500;50.292;6.666;2023-08-07T11:32:23;96557.25;;;18.50;58.61
81025;BME280;70500;50.292;6.666;2023-08-07T11:34:52;96550.13;;;18.52;58.64
81025;BME280;70500;50.292;6.666;2023-08-07T11:37:22;96563.19;;;18.48;58.50
81025;BME280;70500;50.292;6.666;2023-08-07T11:39:51;96543.63;;;18.50;58.45
81025;BME280;70500;50.292;6.666;2023-08-07T11:42:21;96554.63;;;18.55;58.23
81025;BME280;70500;50.292;6.666;2023-08-07T11:44:51;96556.78;;;18.51;58.43
81025;BME280;70500;50.292;6.666;2023-08-07T11:47:20;96550.31;;;18.49;58.36
81025;BME280;70500;50.292;6.666;2023-08-07T11:49:53;96558.75;;;18.51;58.44
81025;BME280;70500;50.292;6.666;2023-08-07T11:52:22;96552.38;;;18.54;58.19
81025;BME280;70500;50.292;6.666;2023-08-07T11:54:52;96556.03;;;18.51;58.33
81025;BME280;70500;50.292;6.666;2023-08-07T11:57:21;96560.53;;;18.54;58.25
81025;BME280;70500;50.292;6.666;2023-08-07T11:59:51;96566.28;;;18.56;57.92
81025;BME280;70500;50.292;6.666;2023-08-07T12:02:24;96555.09;;;18.54;58.28
81025;BME280;70500;50.292;6.666;2023-08-07T12:04:58;96564.50;;;18.53;58.40
81025;BME280;70500;50.292;6.666;2023-08-07T12:07:28;96567.03;;;18.57;58.34
81025;BME280;70500;50.292;6.666;2023-08-07T12:10:02;96552.84;;;18.52;58.01
81025;BME280;70500;50.292;6.666;2023-08-07T12:12:33;96541.47;;;18.54;58.18
81025;BME280;70500;50.292;6.666;2023-08-07T12:15:02;96542.97;;;18.55;57.97
81025;BME280;70500;50.292;6.666;2023-08-07T12:17:33;96539.22;;;18.52;58.43
81025;BME280;70500;50.292;6.666;2023-08-07T12:20:06;96554.06;;;18.51;58.42
81025;BME280;70500;50.292;6.666;2023-08-07T12:22:38;96541.47;;;18.54;58.37
81025;BME280;70500;50.292;6.666;2023-08-07T12:25:07;96540.72;;;18.53;58.35
81025;BME280;70500;50.292;6.666;2023-08-07T12:27:36;96540.72;;;18.53;58.12
81025;BME280;70500;50.292;6.666;2023-08-07T12:30:07;96549.66;;;18.54;58.21
81025;BME280;70500;50.292;6.666;2023-08-07T12:32:36;96558.28;;;18.52;58.24
81025;BME280;70500;50.292;6.666;2023-08-07T12:35:07;96564.50;;;18.53;58.08
81025;BME280;70500;50.292;6.666;2023-08-07T12:37:39;96555.09;;;18.54;58.33
81025;BME280;70500;50.292;6.666;2023-08-07T12:40:09;96558.56;;;18.54;58.03
81025;BME280;70500;50.292;6.666;2023-08-07T12:42:42;96561.31;;;18.54;58.20
81025;BME280;70500;50.292;6.666;2023-08-07T12:45:11;96544.94;;;18.54;58.06
81025;BME280;70500;50.292;6.666;2023-08-07T12:47:41;96544.19;;;18.54;58.22
81025;BME280;70500;50.292;6.666;2023-08-07T12:50:12;96553.88;;;18.55;58.26
81025;BME280;70500;50.292;6.666;2023-08-07T12:52:41;96550.41;;;18.54;58.29
81025;BME280;70500;50.292;6.666;2023-08-07T12:55:11;96545.22;;;18.57;58.40
81025;BME280;70500;50.292;6.666;2023-08-07T12:57:42;96566.00;;;18.54;58.05
81025;BME280;70500;50.292;6.666;2023-08-07T13:00:13;96562.81;;;18.55;58.20
81025;BME280;70500;50.292;6.666;2023-08-07T13:02:44;96552.66;;;18.56;57.99
81025;BME280;70500;50.292;6.666;2023-08-07T13:05:16;96549.94;;;18.56;58.04
81025;BME280;70500;50.292;6.666;2023-08-07T13:07:46;96552.19;;;18.58;58.06
81025;BME280;70500;50.292;6.666;2023-08-07T13:10:17;96556.88;;;18.57;57.96
81025;BME280;70500;50.292;6.666;2023-08-07T13:12:48;96547.50;;;18.58;58.25
81025;BME280;70500;50.292;6.666;2023-08-07T13:15:17;96553.69;;;18.59;57.81
81025;BME280;70500;50.292;6.666;2023-08-07T13:17:46;96545.50;;;18.59;57.98